ADDS METAR Data INFO
IDs: Format: Raw Decoded Include TAF

Data at: 1602 UTC 12 Dec 2017

KGNT 121555Z AUTO 31006KT 10SM CLR M07/M22 A3055 RMK AO2 T10701219
KGNT 121535Z AUTO 32006KT 10SM CLR M08/M22 A3055 RMK AO2 T10821222
KGNT 121515Z AUTO 31006KT 10SM CLR M09/M22 A3055 RMK AO2 T10951225
KGNT 121455Z AUTO 30004KT 10SM CLR M12/M23 A3055 RMK AO2 T11171231
KGNT 121435Z AUTO 31005KT 10SM CLR M13/M23 A3054 RMK AO2 T11301232
KGNT 121415Z AUTO 33004KT 10SM CLR M13/M23 A3055 RMK AO2 T11271234
KGNT 121355Z AUTO 31007KT 10SM CLR M12/M23 A3054 RMK AO2 T11251233
KGNT 121335Z AUTO 30006KT 10SM CLR M14/M24 A3054 RMK AO2 T11401240
KGNT 121315Z AUTO 33008KT 10SM CLR M13/M24 A3052 RMK AO2 T11341238
KGNT 121255Z AUTO 33006KT 10SM CLR M13/M24 A3052 RMK AO2 T11281237
KGNT 121235Z AUTO 31008KT 10SM CLR M13/M24 A3052 RMK AO2 T11301236
KGNT 121215Z AUTO 34006KT 10SM CLR M13/M24 A3052 RMK AO2 T11351237
KGNT 121155Z AUTO 33006KT 10SM CLR M13/M24 A3052 RMK AO2 T11291240 11044 21133
KGNT 121135Z AUTO 32006KT 10SM CLR M13/M23 A3053 RMK AO2 T11311235
KGNT 121115Z AUTO 33005KT 10SM CLR M12/M24 A3052 RMK AO2 T11241236
KGNT 121055Z AUTO 33006KT 10SM CLR M11/M24 A3052 RMK AO2 T11151236
KGNT 121035Z AUTO 30008KT 10SM CLR M12/M24 A3052 RMK AO2 T11191236
KGNT 121015Z AUTO 33007KT 10SM CLR M11/M24 A3052 RMK AO2 T11151237
KGNT 120955Z AUTO 32006KT 10SM CLR M11/M24 A3052 RMK AO2 T11151237
KGNT 120935Z AUTO 32005KT 10SM CLR M11/M24 A3052 RMK AO2 T11111238
KGNT 120915Z AUTO 35004KT 10SM CLR M10/M23 A3052 RMK AO2 T11011232
KGNT 120855Z AUTO 32007KT 10SM CLR M09/M23 A3052 RMK AO2 T10941230
KGNT 120835Z AUTO 27006KT 10SM CLR M10/M23 A3052 RMK AO2 T11051234
KGNT 120815Z AUTO 32007KT 10SM CLR M10/M23 A3052 RMK AO2 T11011231
KGNT 120755Z AUTO 33006KT 10SM CLR M11/M24 A3052 RMK AO2 T11091236
KGNT 120735Z AUTO 32006KT 10SM CLR M11/M23 A3052 RMK AO2 T11081234
KGNT 120715Z AUTO 33005KT 10SM CLR M10/M23 A3051 RMK AO2 T11021235
KGNT 120655Z AUTO 33004KT 10SM CLR M09/M23 A3051 RMK AO2 T10871230 401201163
KGNT 120635Z AUTO 32007KT 10SM CLR M07/M23 A3051 RMK AO2 T10751228
KGNT 120615Z AUTO 31011KT 10SM CLR M05/M23 A3049 RMK AO2 T10481227
KGNT 120555Z AUTO 31011KT 10SM CLR M05/M22 A3050 RMK AO2 T10491223 10076 21060
KGNT 120535Z AUTO 31010KT 10SM CLR M05/M22 A3049 RMK AO2 T10521221
KGNT 120515Z AUTO 31011G16KT 10SM CLR M05/M22 A3049 RMK AO2 T10501222
KGNT 120455Z AUTO 31012KT 10SM CLR M04/M22 A3049 RMK AO2 T10371218
KGNT 120435Z AUTO 31012G17KT 10SM CLR M05/M22 A3048 RMK AO2 T10521220
KGNT 120415Z AUTO 32012KT 10SM CLR M04/M22 A3047 RMK AO2 T10391216
KGNT 120355Z AUTO 31010KT 10SM CLR M03/M22 A3046 RMK AO2 T10341217
KGNT 120335Z AUTO 30005KT 10SM CLR M05/M21 A3046 RMK AO2 T10471214
KGNT 120315Z AUTO 00000KT 10SM CLR 00/M21 A3045 RMK AO2 T10011212
KGNT 120255Z AUTO 35005KT 10SM CLR M01/M21 A3044 RMK AO2 T10081212
KGNT 120235Z AUTO 32005KT 10SM CLR M01/M21 A3045 RMK AO2 T10121210
KGNT 120215Z AUTO 32008KT 10SM CLR 01/M21 A3044 RMK AO2 T00141207
KGNT 120155Z AUTO 26008KT 10SM CLR 02/M20 A3044 RMK AO2 T00151204
KGNT 120135Z AUTO 29005KT 10SM CLR 02/M20 A3043 RMK AO2 T00181205
KGNT 120115Z AUTO 27004KT 10SM CLR 00/M20 A3041 RMK AO2 T00041205
KGNT 120055Z AUTO 00000KT 10SM CLR 03/M21 A3041 RMK AO2 T00261207
KGNT 120035Z AUTO 30005KT 10SM CLR 03/M20 A3040 RMK AO2 T00281205
KGNT 120015Z AUTO 30010KT 10SM CLR 05/M20 A3040 RMK AO2 T00461201
KGNT 112355Z AUTO 30011G16KT 10SM CLR 08/M19 A3040 RMK AO2 T00771190 10120 20006
KGNT 112335Z AUTO 31007G15KT 10SM CLR 09/M18 A3040 RMK AO2 T00901179
KGNT 112315Z AUTO 32005KT 10SM CLR 11/M17 A3040 RMK AO2 T01061171
KGNT 112255Z AUTO 34004KT 10SM CLR 12/M18 A3040 RMK AO2 T01201176
KGNT 112235Z AUTO 35004KT 10SM CLR 12/M18 A3040 RMK AO2 T01171177
KGNT 112215Z AUTO 32003KT 10SM CLR 12/M18 A3040 RMK AO2 T01161178
KGNT 112155Z AUTO 35004KT 10SM CLR 12/M18 A3041 RMK AO2 T01151182
KGNT 112135Z AUTO 33005KT 10SM CLR 12/M18 A3041 RMK AO2 T01181184
KGNT 112115Z AUTO 31009G15KT 10SM CLR 11/M19 A3041 RMK AO2 T01111186
KGNT 112055Z AUTO 30007G16KT 10SM CLR 11/M19 A3042 RMK AO2 T01071190
KGNT 112035Z AUTO 30008KT 10SM CLR 11/M19 A3042 RMK AO2 T01081190
KGNT 112015Z AUTO 33006KT 10SM CLR 11/M19 A3043 RMK AO2 T01051187
KGNT 111955Z AUTO 34006KT 10SM CLR 10/M19 A3044 RMK AO2 T01041189
KGNT 111935Z AUTO 31008KT 10SM CLR 10/M19 A3044 RMK AO2 T01011195
KGNT 111915Z AUTO 32004KT 10SM CLR 09/M19 A3044 RMK AO2 T00851190
KGNT 111855Z AUTO 32006KT 10SM CLR 07/M19 A3046 RMK AO2 T00661195
KGNT 111835Z AUTO 32004KT 10SM CLR 05/M20 A3047 RMK AO2 T00511199
KGNT 111815Z AUTO 33004KT 10SM CLR 02/M21 A3048 RMK AO2 T00241211
KGNT 111755Z AUTO 35005G14KT 10SM CLR 01/M22 A3049 RMK AO2 T00051216 10005 21141
KGNT 111735Z AUTO 31009G14KT 290V350 10SM CLR 00/M22 A3050 RMK AO2 T10031218
KGNT 111715Z AUTO 32008KT 10SM CLR M02/M22 A3051 RMK AO2 T10161223
KGNT 111655Z AUTO 34006KT 10SM CLR M04/M23 A3051 RMK AO2 T10391233
KGNT 111635Z AUTO 33006KT 10SM CLR M06/M24 A3052 RMK AO2 T10561242
KGNT 111615Z AUTO 33008KT 10SM CLR M06/M24 A3052 RMK AO2 T10561238
KGNT 111555Z AUTO 33007KT 10SM CLR M07/M24 A3052 RMK AO2 T10691240
KGNT 111535Z AUTO 32007G15KT 10SM CLR M09/M25 A3052 RMK AO2 T10951249
KGNT 111515Z AUTO 31009KT 10SM CLR M10/M25 A3052 RMK AO2 T11051252
KGNT 111455Z AUTO 32006KT 10SM CLR M12/M25 A3052 RMK AO2 T11161251
KGNT 111435Z AUTO 28004KT 10SM CLR M12/M26 A3051 RMK AO2 T11251260
KGNT 111415Z AUTO 32014KT 10SM CLR M14/M26 A3052 RMK AO2 T11361260
KGNT 111355Z AUTO 32013KT 10SM CLR M14/M26 A3051 RMK AO2 T11391264
KGNT 111335Z AUTO 32005G14KT 10SM CLR M13/M26 A3051 RMK AO2 T11321265
KGNT 111315Z AUTO 30009G14KT 10SM CLR M13/M26 A3051 RMK AO2 T11261264
KGNT 111255Z AUTO 25005KT 10SM CLR M11/M26 A3051 RMK AO2 T11141264
KGNT 111235Z AUTO 30006KT 10SM CLR M13/M26 A3052 RMK AO2 T11341264
KGNT 111215Z AUTO 29008KT 10SM CLR M14/M26 A3052 RMK AO2 T11411265
KGNT 111155Z AUTO 32007KT 10SM CLR M13/M26 A3053 RMK AO2 T11261262 11066 21163
KGNT 111135Z AUTO 29008KT 10SM CLR M12/M25 A3053 RMK AO2 T11201253
KGNT 111115Z AUTO 32014KT 10SM CLR M15/M26 A3052 RMK AO2 T11501260
KGNT 111055Z AUTO 34003KT 10SM CLR M16/M27 A3052 RMK AO2 T11621268
KGNT 111035Z AUTO 31003KT 10SM CLR M14/M26 A3052 RMK AO2 T11421263
KGNT 111015Z AUTO 33005KT 10SM CLR M13/M26 A3052 RMK AO2 T11321260
KGNT 110955Z AUTO 27008KT 10SM CLR M12/M26 A3052 RMK AO2 T11201256
KGNT 110935Z AUTO 30007G14KT 10SM CLR M12/M25 A3051 RMK AO2 T11251255
KGNT 110915Z AUTO 33009KT 10SM CLR M13/M26 A3051 RMK AO2 T11281257
KGNT 110855Z AUTO 31007KT 10SM CLR M11/M26 A3052 RMK AO2 T11151256
KGNT 110835Z AUTO 31007KT 10SM CLR M11/M25 A3052 RMK AO2 T11111253
KGNT 110815Z AUTO 30007KT 10SM CLR M10/M24 A3052 RMK AO2 T11011245
KGNT 110755Z AUTO 30007KT 10SM CLR M12/M24 A3052 RMK AO2 T11211237
KGNT 110735Z AUTO 33006KT 10SM CLR M12/M24 A3052 RMK AO2 T11171237
KGNT 110715Z AUTO 34008KT 10SM CLR M11/M24 A3052 RMK AO2 T11111239
KGNT 110655Z AUTO 33007KT 10SM CLR M10/M23 A3052 RMK AO2 T11001235 401221151
KGNT 110635Z AUTO 31007KT 10SM CLR M09/M23 A3053 RMK AO2 T10861230
KGNT 110615Z AUTO 32007KT 10SM CLR M07/M23 A3052 RMK AO2 T10731230
KGNT 110555Z AUTO 31007KT 10SM CLR M06/M22 A3052 RMK AO2 T10641225 10045 21066
KGNT 110535Z AUTO 31008KT 10SM CLR M07/M23 A3052 RMK AO2 T10661230
KGNT 110515Z AUTO 30010KT 10SM CLR M05/M22 A3052 RMK AO2 T10551225
KGNT 110455Z AUTO 31007KT 10SM CLR M05/M22 A3052 RMK AO2 T10541224
KGNT 110435Z AUTO 31010G14KT 10SM CLR M04/M22 A3051 RMK AO2 T10451217
KGNT 110415Z AUTO 32009KT 10SM CLR M05/M22 A3051 RMK AO2 T10531216